createdAt,value
2023-08-12T00:00:13.115Z,100658.88
2023-08-12T00:02:45.570Z,100651.09
2023-08-12T00:05:13.491Z,100654.63
2023-08-12T00:07:42.473Z,100650.31
2023-08-12T00:10:11.847Z,100646.03
2023-08-12T00:12:39.557Z,100643.47
2023-08-12T00:15:09.052Z,100651.44
2023-08-12T00:17:38.611Z,100642.84
2023-08-12T00:20:07.731Z,100645.59
2023-08-12T00:22:34.926Z,100649.19
2023-08-12T00:25:02.412Z,100651.00
2023-08-12T00:27:29.571Z,100657.22
2023-08-12T00:29:56.497Z,100653.78
2023-08-12T00:32:23.656Z,100652.09
2023-08-12T00:34:51.027Z,100651.31
2023-08-12T00:37:18.307Z,100655.69
2023-08-12T00:39:46.051Z,100658.38
2023-08-12T00:42:13.164Z,100658.41
2023-08-12T00:44:40.226Z,100668.94
2023-08-12T00:47:07.907Z,100672.47
2023-08-12T00:49:35.102Z,100668.16
2023-08-12T00:52:02.358Z,100670.81
2023-08-12T00:54:29.367Z,100669.13
2023-08-12T00:56:56.443Z,100659.59
2023-08-12T00:59:24.240Z,100658.81
2023-08-12T01:01:51.381Z,100662.34
2023-08-12T01:04:18.502Z,100665.00
2023-08-12T01:06:46.463Z,100660.72
2023-08-12T01:09:13.651Z,100657.25
2023-08-12T01:11:46.930Z,100659.00
2023-08-12T01:14:29.810Z,100661.66
2023-08-12T01:17:01.253Z,100649.44
2023-08-12T01:19:37.091Z,100658.19
2023-08-12T01:22:05.410Z,100652.97
2023-08-12T01:24:37.338Z,100653.84
2023-08-12T01:27:05.744Z,100655.63
2023-08-12T01:29:34.282Z,100650.41
2023-08-12T01:32:12.576Z,100657.41
2023-08-12T01:34:57.423Z,100660.03
2023-08-12T01:37:30.307Z,100656.56
2023-08-12T01:39:58.026Z,100652.25
2023-08-12T01:42:25.598Z,100657.53
2023-08-12T01:44:54.628Z,100654.03
2023-08-12T01:47:21.530Z,100651.44
2023-08-12T01:49:48.514Z,100645.41
2023-08-12T01:52:15.432Z,100637.56
2023-08-12T01:54:42.487Z,100639.28
2023-08-12T01:57:10.486Z,100642.78
2023-08-12T01:59:39.327Z,100650.66
2023-08-12T02:02:06.404Z,100650.69
2023-08-12T02:04:35.352Z,100651.53
2023-08-12T02:07:02.191Z,100651.56
2023-08-12T02:09:29.118Z,100652.44
2023-08-12T02:11:56.059Z,100651.59
2023-08-12T02:14:23.070Z,100654.19
2023-08-12T02:16:50.093Z,100643.75
2023-08-12T02:19:17.151Z,100648.13
2023-08-12T02:21:44.286Z,100646.41
2023-08-12T02:24:11.318Z,100641.16
2023-08-12T02:26:39.323Z,100641.19
2023-08-12T02:29:06.293Z,100640.28
2023-08-12T02:31:33.941Z,100641.19
2023-08-12T02:34:00.884Z,100642.06
2023-08-12T02:36:28.060Z,100648.19
2023-08-12T02:38:56.245Z,100641.22
2023-08-12T02:41:23.229Z,100645.59
2023-08-12T02:43:50.065Z,100648.22
2023-08-12T02:46:17.324Z,100650.84
2023-08-12T02:48:44.468Z,100634.31
2023-08-12T02:51:11.438Z,100645.66
2023-08-12T02:53:38.403Z,100644.75
2023-08-12T02:56:05.417Z,100645.66
2023-08-12T02:58:32.632Z,100650.88
2023-08-12T03:00:59.698Z,100644.78
2023-08-12T03:03:26.887Z,100650.88
2023-08-12T03:05:53.862Z,100648.28
2023-08-12T03:08:20.947Z,100652.59
2023-08-12T03:10:49.213Z,100653.47
2023-08-12T03:13:17.510Z,100645.63
2023-08-12T03:15:44.563Z,100644.72
2023-08-12T03:18:11.935Z,100642.13
2023-08-12T03:20:40.298Z,100641.25
2023-08-12T03:23:07.304Z,100636.88
2023-08-12T03:25:34.149Z,100645.59
2023-08-12T03:28:01.294Z,100645.56
2023-08-12T03:30:28.601Z,100649.97
2023-08-12T03:32:57.184Z,100649.03
2023-08-12T03:35:27.061Z,100649.00
2023-08-12T03:37:54.623Z,100647.25
2023-08-12T03:40:22.522Z,100651.56
2023-08-12T03:42:50.031Z,100656.75
2023-08-12T03:45:20.024Z,100656.72
2023-08-12T03:47:47.735Z,100657.59
2023-08-12T03:50:14.766Z,100664.56
2023-08-12T03:52:41.939Z,100658.44
2023-08-12T03:55:09.293Z,100658.44
2023-08-12T03:57:36.338Z,100658.38
2023-08-12T04:00:04.251Z,100662.72
2023-08-12T04:02:41.722Z,100665.28
2023-08-12T04:05:08.962Z,100660.91
2023-08-12T04:07:37.703Z,100666.88
2023-08-12T04:10:05.114Z,100656.31
2023-08-12T04:12:32.384Z,100648.31
2023-08-12T04:14:59.424Z,100653.34
2023-08-12T04:17:26.392Z,100650.59
2023-08-12T04:19:53.969Z,100655.63
2023-08-12T04:22:20.890Z,100654.47
2023-08-12T04:24:47.930Z,100660.09
2023-08-12T04:27:15.246Z,100654.94
2023-08-12T04:29:42.416Z,100658.22
2023-08-12T04:32:09.809Z,100657.63
2023-08-12T04:34:37.055Z,100653.00
2023-08-12T04:37:04.547Z,100638.44
2023-08-12T04:39:33.598Z,100637.94
2023-08-12T04:42:01.168Z,100640.94
2023-08-12T04:44:28.198Z,100635.75
2023-08-12T04:46:56.161Z,100637.91
2023-08-12T04:49:24.744Z,100631.66
2023-08-12T04:51:53.896Z,100635.78
2023-08-12T04:54:21.532Z,100627.53
2023-08-12T04:56:50.021Z,100622.91
2023-08-12T04:59:17.096Z,100625.50
2023-08-12T05:01:58.514Z,100626.50
2023-08-12T05:04:31.916Z,100634.00
2023-08-12T05:06:59.012Z,100629.00
2023-08-12T05:09:26.332Z,100625.38
2023-08-12T05:11:53.431Z,100629.53
2023-08-12T05:14:20.480Z,100628.38
2023-08-12T05:16:47.641Z,100628.16
2023-08-12T05:19:14.683Z,100628.88
2023-08-12T05:21:41.958Z,100637.16
2023-08-12T05:24:09.358Z,100629.75
2023-08-12T05:26:36.221Z,100627.63
2023-08-12T05:29:03.389Z,100629.09
2023-08-12T05:31:30.935Z,100616.38
2023-08-12T05:33:58.127Z,100624.06
2023-08-12T05:36:25.023Z,100621.28
2023-08-12T05:38:51.968Z,100622.22
2023-08-12T05:41:18.975Z,100625.66
2023-08-12T05:43:45.996Z,100623.88
2023-08-12T05:46:13.189Z,100617.00
2023-08-12T05:48:40.235Z,100614.38
2023-08-12T05:51:07.370Z,100609.09
2023-08-12T05:53:34.652Z,100622.81
2023-08-12T05:56:01.909Z,100610.06
2023-08-12T05:58:28.799Z,100612.22
2023-08-12T06:00:55.924Z,100612.56
2023-08-12T06:03:22.922Z,100608.63
2023-08-12T06:05:50.370Z,100605.44
2023-08-12T06:08:17.373Z,100598.03
2023-08-12T06:10:44.481Z,100603.63
2023-08-12T06:13:11.486Z,100599.38
2023-08-12T06:15:38.523Z,100590.72
2023-08-12T06:18:06.053Z,100596.72
2023-08-12T06:20:33.089Z,100590.44
2023-08-12T06:23:00.177Z,100590.34
2023-08-12T06:25:27.061Z,100586.19
2023-08-12T06:27:54.205Z,100585.28
2023-08-12T06:30:21.220Z,100583.13
2023-08-12T06:32:48.202Z,100586.88
2023-08-12T06:35:15.206Z,100576.81
2023-08-12T06:37:42.925Z,100581.50
2023-08-12T06:40:10.068Z,100578.81
2023-08-12T06:42:37.176Z,100577.09
2023-08-12T06:45:05.634Z,100581.63
2023-08-12T06:47:32.790Z,100577.19
2023-08-12T06:49:59.911Z,100572.13
2023-08-12T06:52:26.815Z,100574.38
2023-08-12T06:54:53.953Z,100581.78
2023-08-12T06:57:20.856Z,100579.66
2023-08-12T06:59:47.933Z,100576.69
2023-08-12T07:02:15.088Z,100574.28
2023-08-12T07:04:42.633Z,100577.94
2023-08-12T07:07:09.480Z,100574.41
2023-08-12T07:09:36.566Z,100579.47
2023-08-12T07:12:04.114Z,100576.06
2023-08-12T07:14:31.312Z,100582.69
2023-08-12T07:16:58.268Z,100574.41
2023-08-12T07:19:25.201Z,100567.97
2023-08-12T07:21:52.355Z,100572.16
2023-08-12T07:24:19.354Z,100572.13
2023-08-12T07:26:46.398Z,100574.16
2023-08-12T07:29:13.235Z,100571.06
2023-08-12T07:31:40.265Z,100577.94
2023-08-12T07:34:07.235Z,100571.03
2023-08-12T07:36:34.554Z,100562.66
2023-08-12T07:39:01.380Z,100567.88
2023-08-12T07:41:29.403Z,100573.00
2023-08-12T07:43:56.371Z,100575.59
2023-08-12T07:46:23.579Z,100576.03
2023-08-12T07:48:50.844Z,100576.22
2023-08-12T07:51:17.822Z,100572.03
2023-08-12T07:53:44.836Z,100568.06
2023-08-12T07:56:11.838Z,100572.19
2023-08-12T07:58:38.785Z,100569.44
2023-08-12T08:01:06.300Z,100571.31
2023-08-12T08:03:33.236Z,100565.31
2023-08-12T08:06:00.253Z,100565.75
2023-08-12T08:08:27.175Z,100563.59
2023-08-12T08:10:54.131Z,100572.44
2023-08-12T08:13:21.260Z,100564.19
2023-08-12T08:15:48.216Z,100561.78
2023-08-12T08:18:15.341Z,100563.59
2023-08-12T08:20:46.269Z,100559.47
2023-08-12T08:23:13.502Z,100553.91
2023-08-12T08:25:40.799Z,100564.78
2023-08-12T08:28:07.767Z,100563.88
2023-08-12T08:30:34.655Z,100567.22
2023-08-12T08:33:01.784Z,100561.03
2023-08-12T08:35:28.920Z,100558.28
2023-08-12T08:37:56.103Z,100552.81
2023-08-12T08:40:23.046Z,100554.56
2023-08-12T08:42:54.506Z,100553.09
2023-08-12T08:45:26.703Z,100550.00
2023-08-12T08:47:54.219Z,100553.81
2023-08-12T08:50:21.992Z,100544.66
2023-08-12T08:52:49.165Z,100549.47
2023-08-12T08:55:16.437Z,100548.81
2023-08-12T08:57:47.438Z,100548.63
2023-08-12T09:00:23.392Z,100554.16
2023-08-12T09:02:54.370Z,100543.34
2023-08-12T09:05:22.044Z,100539.13
2023-08-12T09:07:50.485Z,100532.63
2023-08-12T09:10:18.812Z,100538.19
2023-08-12T09:12:47.939Z,100537.88
2023-08-12T09:15:17.553Z,100527.44
2023-08-12T09:17:44.718Z,100535.84
2023-08-12T09:20:15.480Z,100536.41
2023-08-12T09:22:42.710Z,100524.91
2023-08-12T09:25:10.541Z,100530.59
2023-08-12T09:27:41.414Z,100529.66
2023-08-12T09:30:09.790Z,100522.06
2023-08-12T09:32:37.164Z,100512.88
2023-08-12T09:35:06.686Z,100513.38
2023-08-12T09:37:33.637Z,100508.41
2023-08-12T09:40:00.640Z,100508.81
2023-08-12T09:42:29.364Z,100519.09
2023-08-12T09:44:57.870Z,100511.69
2023-08-12T09:47:28.302Z,100503.75
2023-08-12T09:49:56.287Z,100500.41
2023-08-12T09:52:23.343Z,100503.94
2023-08-12T09:54:51.474Z,100497.81
2023-08-12T09:57:19.443Z,100502.59
2023-08-12T09:59:47.727Z,100503.66
2023-08-12T10:02:19.881Z,100508.91
2023-08-12T10:04:47.598Z,100499.06
2023-08-12T10:07:15.354Z,100504.28
2023-08-12T10:09:43.039Z,100498.44
2023-08-12T10:12:10.798Z,100500.41
2023-08-12T10:14:38.771Z,100497.09
2023-08-12T10:17:06.841Z,100499.13
2023-08-12T10:19:35.200Z,100501.09
2023-08-12T10:22:04.914Z,100489.72
2023-08-12T10:24:32.797Z,100490.69
2023-08-12T10:26:59.713Z,100489.56
2023-08-12T10:29:26.714Z,100497.25
2023-08-12T10:31:54.770Z,100484.88
2023-08-12T10:34:26.207Z,100481.34
2023-08-12T10:39:30.045Z,100477.00
2023-08-12T10:41:57.465Z,100478.03
2023-08-12T10:44:29.903Z,100474.63
2023-08-12T10:46:59.576Z,100471.28
2023-08-12T10:49:26.606Z,100470.44
2023-08-12T10:51:55.128Z,100463.94
2023-08-12T10:54:33.171Z,100466.63
2023-08-12T10:57:09.382Z,100458.16
2023-08-12T10:59:58.331Z,100455.16
2023-08-12T11:02:34.207Z,100448.03
2023-08-12T11:05:08.285Z,100440.25
2023-08-12T11:07:43.341Z,100448.38
2023-08-12T11:10:23.488Z,100449.53
2023-08-12T11:12:58.227Z,100443.25
2023-08-12T11:15:38.187Z,100445.47
2023-08-12T11:18:07.717Z,100438.22
2023-08-12T11:20:35.423Z,100435.25
2023-08-12T11:23:03.681Z,100428.06
2023-08-12T11:25:31.484Z,100440.78
2023-08-12T11:27:59.018Z,100428.28
2023-08-12T11:30:26.188Z,100433.19
2023-08-12T11:32:54.998Z,100431.59
2023-08-12T11:35:23.810Z,100425.16
2023-08-12T11:37:54.318Z,100420.78
2023-08-12T11:40:21.465Z,100425.91
2023-08-12T11:42:50.017Z,100425.91
2023-08-12T11:45:19.641Z,100417.78
2023-08-12T11:47:48.537Z,100408.06
2023-08-12T11:50:15.586Z,100420.38
2023-08-12T11:52:42.625Z,100412.78
2023-08-12T11:55:10.582Z,100404.75
2023-08-12T11:57:38.232Z,100400.09
2023-08-12T12:00:16.798Z,100404.22
2023-08-12T12:02:51.351Z,100403.28
2023-08-12T12:05:24.285Z,100404.88
2023-08-12T12:07:53.097Z,100399.97
2023-08-12T12:10:34.534Z,100391.94
2023-08-12T12:13:03.703Z,100386.16
2023-08-12T12:15:32.226Z,100386.50
2023-08-12T12:17:59.906Z,100391.59
2023-08-12T12:20:28.490Z,100398.53
2023-08-12T12:22:56.388Z,100386.50
2023-08-12T12:25:24.333Z,100384.69
2023-08-12T12:27:51.234Z,100382.94
2023-08-12T12:30:18.571Z,100376.66
2023-08-12T12:32:46.509Z,100370.53
2023-08-12T12:35:13.943Z,100375.44
2023-08-12T12:37:41.171Z,100374.75
2023-08-12T12:40:08.747Z,100368.66
2023-08-12T12:42:35.788Z,100371.41
2023-08-12T12:45:03.485Z,100360.88
2023-08-12T12:47:30.431Z,100358.25
2023-08-12T12:49:57.543Z,100359.88
2023-08-12T12:52:24.577Z,100362.44
2023-08-12T12:54:51.526Z,100356.50
2023-08-12T12:57:18.546Z,100352.97
2023-08-12T12:59:45.490Z,100353.97
2023-08-12T13:02:12.898Z,100350.09
2023-08-12T13:04:39.974Z,100345.72
2023-08-12T13:07:06.945Z,100347.38
2023-08-12T13:09:33.830Z,100346.19
2023-08-12T13:12:00.943Z,100330.09
2023-08-12T13:14:30.080Z,100336.34
2023-08-12T13:16:57.234Z,100331.16
2023-08-12T13:19:24.234Z,100335.69
2023-08-12T13:21:51.283Z,100331.44
2023-08-12T13:24:18.175Z,100330.41
2023-08-12T13:26:45.112Z,100329.56
2023-08-12T13:29:12.164Z,100325.00
2023-08-12T13:31:40.370Z,100325.78
2023-08-12T13:34:07.439Z,100329.25
2023-08-12T13:36:34.352Z,100320.56
2023-08-12T13:39:01.603Z,100321.09
2023-08-12T13:41:28.629Z,100326.84
2023-08-12T13:43:55.661Z,100324.03
2023-08-12T13:46:22.528Z,100315.91
2023-08-12T13:48:49.596Z,100316.06
2023-08-12T13:51:16.525Z,100314.72
2023-08-12T13:53:43.577Z,100316.13
2023-08-12T13:56:10.661Z,100316.66
2023-08-12T13:58:37.623Z,100307.41
2023-08-12T14:01:04.674Z,100304.88
2023-08-12T14:03:31.929Z,100304.47
2023-08-12T14:05:59.274Z,100301.22
2023-08-12T14:08:26.424Z,100292.06
2023-08-12T14:10:53.469Z,100282.09
2023-08-12T14:13:20.377Z,100284.03
2023-08-12T14:15:47.366Z,100266.53
2023-08-12T14:18:14.358Z,100273.09
2023-08-12T14:20:41.460Z,100265.53
2023-08-12T14:23:09.874Z,100265.78
2023-08-12T14:25:37.013Z,100260.72
2023-08-12T14:28:04.364Z,100254.78
2023-08-12T14:30:31.437Z,100262.50
2023-08-12T14:32:58.696Z,100257.53
2023-08-12T14:35:26.310Z,100256.22
2023-08-12T14:37:53.265Z,100253.44
2023-08-12T14:40:20.234Z,100248.19
2023-08-12T14:42:47.698Z,100243.47
2023-08-12T14:45:14.751Z,100236.06
2023-08-12T14:47:41.816Z,100229.72
2023-08-12T14:50:09.882Z,100237.13
2023-08-12T14:52:36.984Z,100232.25
2023-08-12T14:55:04.107Z,100238.69
2023-08-12T14:57:31.265Z,100229.56
2023-08-12T14:59:58.151Z,100225.03
2023-08-12T15:02:25.284Z,100219.75
2023-08-12T15:04:52.772Z,100209.47
2023-08-12T15:07:20.132Z,100217.19
2023-08-12T15:09:47.525Z,100217.22
2023-08-12T15:12:14.388Z,100218.75
2023-08-12T15:14:41.597Z,100217.00
2023-08-12T15:17:08.620Z,100205.91
2023-08-12T15:19:35.817Z,100204.50
2023-08-12T15:22:02.726Z,100209.38
2023-08-12T15:24:29.736Z,100215.91
2023-08-12T15:26:56.676Z,100184.03
2023-08-12T15:29:23.647Z,100204.13
2023-08-12T15:31:51.282Z,100201.22
2023-08-12T15:34:18.577Z,100189.91
2023-08-12T15:36:45.744Z,100186.59
2023-08-12T15:39:12.980Z,100195.88
2023-08-12T15:41:43.268Z,100192.94
2023-08-12T15:44:13.564Z,100193.41
2023-08-12T15:46:41.171Z,100198.84
2023-08-12T15:49:12.082Z,100193.59
2023-08-12T15:51:40.419Z,100186.78
2023-08-12T15:54:08.518Z,100173.00
2023-08-12T15:56:38.165Z,100190.28
2023-08-12T15:59:07.024Z,100184.94
2023-08-12T16:01:34.882Z,100174.31
2023-08-12T16:04:02.072Z,100176.78
2023-08-12T16:06:29.716Z,100179.28
2023-08-12T16:09:15.722Z,100180.81
2023-08-12T16:11:43.850Z,100188.66
2023-08-12T16:14:10.837Z,100192.81
2023-08-12T16:16:37.772Z,100182.19
2023-08-12T16:19:05.004Z,100180.88
2023-08-12T16:21:32.727Z,100175.84
2023-08-12T16:23:59.864Z,100178.75
2023-08-12T16:26:26.891Z,100179.19
2023-08-12T16:28:53.752Z,100169.38
2023-08-12T16:31:21.024Z,100172.56
2023-08-12T16:33:47.936Z,100171.03
2023-08-12T16:36:15.000Z,100171.91
2023-08-12T16:41:08.913Z,100174.28
2023-08-12T16:43:35.763Z,100167.00
2023-08-12T16:46:02.914Z,100165.28
2023-08-12T16:48:29.910Z,100159.13
2023-08-12T16:50:56.980Z,100152.28
2023-08-12T16:53:24.044Z,100147.22
2023-08-12T16:58:18.391Z,100153.13
2023-08-12T17:00:46.740Z,100131.84
2023-08-12T17:03:14.087Z,100146.22
2023-08-12T17:05:41.030Z,100144.81
2023-08-12T17:08:09.341Z,100133.91
2023-08-12T17:10:40.254Z,100144.25
2023-08-12T17:13:07.276Z,100138.25
2023-08-12T17:15:34.448Z,100135.09
2023-08-12T17:18:01.454Z,100132.69
2023-08-12T17:20:28.689Z,100142.97
2023-08-12T17:22:55.659Z,100132.50
2023-08-12T17:25:22.670Z,100144.00
2023-08-12T17:27:51.736Z,100135.84
2023-08-12T17:30:22.173Z,100124.56
2023-08-12T17:32:49.450Z,100134.91
2023-08-12T17:35:16.573Z,100127.66
2023-08-12T17:37:44.231Z,100130.13
2023-08-12T17:40:12.302Z,100132.09
2023-08-12T17:42:39.286Z,100128.75
2023-08-12T17:45:07.329Z,100124.41
2023-08-12T17:47:34.488Z,100125.44
2023-08-12T17:50:01.425Z,100127.91
2023-08-12T17:52:28.495Z,100131.25
2023-08-12T17:54:55.446Z,100128.59
2023-08-12T17:57:22.447Z,100131.97
2023-08-12T17:59:49.421Z,100121.75
2023-08-12T18:02:16.646Z,100121.69
2023-08-12T18:04:43.788Z,100130.50
2023-08-12T18:07:10.850Z,100125.75
2023-08-12T18:09:37.811Z,100128.22
2023-08-12T18:12:04.904Z,100128.22
2023-08-12T18:14:31.898Z,100127.22
2023-08-12T18:16:59.112Z,100128.91
2023-08-12T18:19:26.106Z,100125.41
2023-08-12T18:21:53.047Z,100120.13
2023-08-12T18:24:20.166Z,100118.47
2023-08-12T18:26:47.028Z,100123.25
2023-08-12T18:29:14.142Z,100116.47
2023-08-12T18:31:41.066Z,100126.03
2023-08-12T18:34:08.048Z,100119.56
2023-08-12T18:36:35.142Z,100128.00
2023-08-12T18:39:02.171Z,100129.88
2023-08-12T18:41:29.079Z,100121.25
2023-08-12T18:43:56.187Z,100118.75
2023-08-12T18:46:23.325Z,100115.03
2023-08-12T18:48:50.441Z,100116.66
2023-08-12T18:51:17.747Z,100117.13
2023-08-12T18:53:44.710Z,100112.69
2023-08-12T18:56:11.657Z,100117.06
2023-08-12T18:58:38.607Z,100114.16
2023-08-12T19:01:05.685Z,100112.41
2023-08-12T19:03:32.733Z,100111.47
2023-08-12T19:06:01.157Z,100115.03
2023-08-12T19:08:28.187Z,100103.75
2023-08-12T19:10:59.052Z,100103.66
2023-08-12T19:13:26.701Z,100107.00
2023-08-12T19:15:55.678Z,100112.13
2023-08-12T19:18:26.996Z,100094.63
2023-08-12T19:20:54.095Z,100087.06
2023-08-12T19:23:21.607Z,100087.28
2023-08-12T19:25:49.491Z,100092.53
2023-08-12T19:28:16.831Z,100094.09
2023-08-12T19:30:49.813Z,100095.72
2023-08-12T19:33:18.862Z,100091.13
2023-08-12T19:35:46.371Z,100097.38
2023-08-12T19:38:14.361Z,100099.22
2023-08-12T19:40:41.426Z,100096.75
2023-08-12T19:43:08.646Z,100100.25
2023-08-12T19:45:35.753Z,100101.09
2023-08-12T19:48:02.932Z,100097.50
2023-08-12T19:50:31.309Z,100090.41
2023-08-12T19:52:58.420Z,100086.06
2023-08-12T19:55:25.964Z,100085.97
2023-08-12T19:57:52.802Z,100089.47
2023-08-12T20:00:19.838Z,100094.72
2023-08-12T20:02:47.440Z,100096.41
2023-08-12T20:05:19.221Z,100091.22
2023-08-12T20:07:48.286Z,100100.78
2023-08-12T20:10:17.249Z,100091.13
2023-08-12T20:12:45.311Z,100096.50
2023-08-12T20:15:12.627Z,100100.06
2023-08-12T20:17:40.974Z,100086.84
2023-08-12T20:20:13.463Z,100094.78
2023-08-12T20:23:04.509Z,100090.50
2023-08-12T20:25:37.986Z,100085.13
2023-08-12T20:28:07.065Z,100085.03
2023-08-12T20:30:34.978Z,100081.47
2023-08-12T20:33:05.080Z,100076.25
2023-08-12T20:35:34.955Z,100073.59
2023-08-12T20:38:04.191Z,100076.25
2023-08-12T20:40:33.010Z,100074.38
2023-08-12T20:43:02.014Z,100074.31
2023-08-12T20:45:29.249Z,100078.50
2023-08-12T20:47:56.317Z,100083.63
2023-08-12T20:50:23.254Z,100081.69
2023-08-12T20:52:50.383Z,100088.53
2023-08-12T20:55:17.323Z,100084.94
2023-08-12T20:57:44.413Z,100088.38
2023-08-12T21:00:17.378Z,100078.63
2023-08-12T21:02:46.510Z,100074.34
2023-08-12T21:05:14.739Z,100082.31
2023-08-12T21:07:42.282Z,100066.31
2023-08-12T21:10:10.775Z,100071.63
2023-08-12T21:12:38.384Z,100065.56
2023-08-12T21:15:06.049Z,100075.31
2023-08-12T21:17:33.293Z,100070.16
2023-08-12T21:20:00.297Z,100058.00
2023-08-12T21:22:27.411Z,100058.31
2023-08-12T21:24:54.500Z,100056.72
2023-08-12T21:27:22.329Z,100058.56
2023-08-12T21:29:49.197Z,100065.66
2023-08-12T21:32:16.957Z,100064.03
2023-08-12T21:34:44.026Z,100059.72
2023-08-12T21:37:12.134Z,100062.47
2023-08-12T21:39:39.085Z,100061.53
2023-08-12T21:42:06.409Z,100064.16
2023-08-12T21:44:33.364Z,100062.47
2023-08-12T21:47:00.809Z,100053.88
2023-08-12T21:49:27.948Z,100045.06
2023-08-12T21:51:55.676Z,100039.03
2023-08-12T21:54:22.715Z,100035.91
2023-08-12T21:56:49.855Z,100040.88
2023-08-12T21:59:16.955Z,100036.75
2023-08-12T22:01:45.010Z,100031.78
2023-08-12T22:04:12.163Z,100046.16
2023-08-12T22:06:39.122Z,100038.47
2023-08-12T22:09:06.117Z,100049.03
2023-08-12T22:11:33.010Z,100050.91
2023-08-12T22:14:00.083Z,100051.91
2023-08-12T22:16:27.033Z,100052.22
2023-08-12T22:18:54.038Z,100058.75
2023-08-12T22:21:21.901Z,100055.38
2023-08-12T22:23:48.780Z,100060.75
2023-08-12T22:26:15.760Z,100061.84
2023-08-12T22:28:42.614Z,100063.84
2023-08-12T22:31:09.745Z,100064.78
2023-08-12T22:33:36.757Z,100058.56
2023-08-12T22:36:04.532Z,100062.84
2023-08-12T22:38:31.446Z,100057.47
2023-08-12T22:40:58.539Z,100045.97
2023-08-12T22:43:25.599Z,100046.78
2023-08-12T22:45:52.611Z,100045.03
2023-08-12T22:48:20.342Z,100039.69
2023-08-12T22:50:47.501Z,100040.47
2023-08-12T22:53:14.742Z,100037.72
2023-08-12T22:55:41.860Z,100038.59
2023-08-12T22:58:08.937Z,100043.09
2023-08-12T23:00:36.282Z,100043.25
2023-08-12T23:03:04.209Z,100035.38
2023-08-12T23:05:31.401Z,100033.59
2023-08-12T23:07:58.298Z,100040.59
2023-08-12T23:10:25.103Z,100038.66
2023-08-12T23:12:52.274Z,100032.44
2023-08-12T23:15:19.238Z,100038.53
2023-08-12T23:17:46.332Z,100045.53
2023-08-12T23:20:13.224Z,100042.78
2023-08-12T23:22:40.205Z,100049.03
2023-08-12T23:25:08.604Z,100049.13
2023-08-12T23:27:36.850Z,100044.66
2023-08-12T23:30:04.322Z,100043.88
2023-08-12T23:32:31.597Z,100034.31
2023-08-12T23:34:58.648Z,100029.16
2023-08-12T23:37:25.519Z,100026.69
2023-08-12T23:39:52.658Z,100035.69
2023-08-12T23:42:19.495Z,100027.91
2023-08-12T23:44:46.620Z,100035.19
2023-08-12T23:47:13.477Z,100037.97
2023-08-12T23:49:40.408Z,100034.59
2023-08-12T23:52:08.170Z,100031.28
2023-08-12T23:54:35.201Z,100030.56
2023-08-12T23:57:04.208Z,100026.28
2023-08-12T23:59:31.039Z,100016.31
